Time;durP1;ratioP1;P1;durP2;ratioP2;P2;SDS_P1;SDS_P2;PMS_P1;PMS_P2;Temp;Humidity;BMP_temperature;BMP_pressure;BME280_temperature;BME280_humidity;BME280_pressure;Samples;Min_cycle;Max_cycle;Signal;HPM_P1;HPM_P2
2023/03/31 00:00:13;;;;;;;1.30;1.20;;;;;9.50;95400.00;;;;5019592;28;20267;-60
2023/03/31 00:02:41;;;;;;;0.53;0.53;;;;;9.50;95401.00;;;;5021598;28;20198;-60
2023/03/31 00:05:09;;;;;;;0.63;0.63;;;;;9.40;95385.00;;;;5022375;28;20275;-61
2023/03/31 00:07:37;;;;;;;0.70;0.70;;;;;9.40;95381.00;;;;5018205;28;20767;-60
2023/03/31 00:10:06;;;;;;;0.60;0.60;;;;;9.40;95374.00;;;;5018072;28;20264;-62
2023/03/31 00:12:35;;;;;;;1.17;1.07;;;;;9.30;95380.00;;;;5015692;28;20225;-60
2023/03/31 00:15:03;;;;;;;0.57;0.57;;;;;9.30;95375.00;;;;5017390;28;20197;-60
2023/03/31 00:17:32;;;;;;;0.60;0.60;;;;;9.30;95370.00;;;;5019770;28;20213;-59
2023/03/31 00:20:03;;;;;;;0.83;0.83;;;;;9.20;95361.00;;;;5019001;28;20215;-59
2023/03/31 00:22:31;;;;;;;0.83;0.83;;;;;9.20;95361.00;;;;5019612;28;20269;-62
2023/03/31 00:24:59;;;;;;;0.63;0.63;;;;;9.20;95363.00;;;;5019593;28;20201;-60
2023/03/31 00:27:27;;;;;;;1.37;1.00;;;;;9.10;95377.00;;;;5019355;28;20209;-61
2023/03/31 00:29:56;;;;;;;1.33;0.93;;;;;9.00;95368.00;;;;5018632;28;20215;-61
2023/03/31 00:32:24;;;;;;;0.70;0.70;;;;;9.00;95370.00;;;;5019906;28;20197;-60
2023/03/31 00:34:51;;;;;;;0.60;0.60;;;;;8.90;95362.00;;;;5017413;28;20676;-61
2023/03/31 00:37:18;;;;;;;0.50;0.50;;;;;9.00;95345.00;;;;5018336;28;20715;-59
2023/03/31 00:39:46;;;;;;;1.10;1.10;;;;;9.10;95357.00;;;;5020053;28;20194;-61
2023/03/31 00:42:13;;;;;;;0.77;0.77;;;;;9.00;95348.00;;;;5014936;28;20256;-61
2023/03/31 00:45:22;;;;;;;0.70;0.70;;;;;9.00;95351.00;;;;5014919;28;20193;-61
2023/03/31 00:47:54;;;;;;;0.80;0.80;;;;;8.90;95353.00;;;;5009789;28;20237;-60
2023/03/31 00:50:25;;;;;;;0.60;0.60;;;;;8.90;95352.00;;;;5015478;28;20178;-59
2023/03/31 00:52:57;;;;;;;0.50;0.50;;;;;9.00;95342.00;;;;5017429;28;20193;-59
2023/03/31 00:55:31;;;;;;;0.80;0.80;;;;;9.10;95319.00;;;;5017190;28;20684;-60
2023/03/31 00:58:00;;;;;;;1.27;1.20;;;;;9.20;95316.00;;;;5014932;28;20300;-61
2023/03/31 01:00:29;;;;;;;0.63;0.63;;;;;9.20;95303.00;;;;5015052;28;20205;-61
2023/03/31 01:03:02;;;;;;;2.57;0.80;;;;;9.30;95291.00;;;;5015074;28;20548;-61
2023/03/31 01:05:33;;;;;;;0.83;0.83;;;;;9.30;95279.00;;;;5015045;28;20193;-61
2023/03/31 01:08:02;;;;;;;0.63;0.63;;;;;9.30;95283.00;;;;5016195;28;20639;-61
2023/03/31 01:10:37;;;;;;;0.73;0.73;;;;;9.60;95294.00;;;;5021075;28;20221;-61
2023/03/31 01:13:05;;;;;;;1.43;1.33;;;;;9.60;95311.00;;;;5020458;28;20255;-60
2023/03/31 01:15:32;;;;;;;0.57;0.57;;;;;9.60;95307.00;;;;5019353;28;20212;-60
2023/03/31 01:18:02;;;;;;;0.60;0.60;;;;;9.40;95302.00;;;;5020806;28;20244;-59
2023/03/31 01:20:37;;;;;;;0.70;0.70;;;;;9.30;95229.00;;;;5020926;28;20197;-60
2023/03/31 01:23:35;;;;;;;0.80;0.80;;;;;9.20;95307.00;;;;5020861;28;20617;-60
2023/03/31 01:26:31;;;;;;;1.30;1.17;;;;;9.30;95296.00;;;;5020199;28;20201;-60
2023/03/31 01:29:07;;;;;;;0.70;0.70;;;;;9.20;95306.00;;;;5020842;28;20218;-60
2023/03/31 01:31:57;;;;;;;1.43;1.33;;;;;8.80;95299.00;;;;5019376;28;20178;-60
2023/03/31 01:35:13;;;;;;;1.27;1.13;;;;;8.90;95290.00;;;;5012732;28;20313;-61
2023/03/31 01:38:12;;;;;;;0.80;0.80;;;;;9.30;95302.00;;;;5018712;28;20213;-60
2023/03/31 01:41:06;;;;;;;0.60;0.60;;;;;9.30;95315.00;;;;5020504;28;20188;-59
2023/03/31 01:43:38;;;;;;;0.60;0.60;;;;;9.30;95308.00;;;;5014210;28;20186;-59
2023/03/31 01:46:16;;;;;;;0.80;0.80;;;;;9.10;95303.00;;;;5013806;28;20236;-60
2023/03/31 01:48:51;;;;;;;0.57;0.57;;;;;9.00;95297.00;;;;5013574;28;20627;-61
2023/03/31 01:51:25;;;;;;;1.07;1.07;;;;;8.90;95279.00;;;;5014556;28;20543;-60
2023/03/31 01:54:01;;;;;;;0.50;0.50;;;;;8.90;95284.00;;;;5020169;28;20209;-60
2023/03/31 01:56:35;;;;;;;0.70;0.70;;;;;8.90;95276.00;;;;5020213;28;20700;-59
2023/03/31 01:59:08;;;;;;;0.73;0.73;;;;;8.90;95275.00;;;;5013666;28;20218;-60
2023/03/31 02:01:41;;;;;;;0.70;0.70;;;;;8.90;95265.00;;;;5014161;28;20630;-60
2023/03/31 02:04:13;;;;;;;0.90;0.90;;;;;9.00;95266.00;;;;5019878;28;20177;-59
2023/03/31 02:06:45;;;;;;;0.60;0.60;;;;;9.10;95263.00;;;;5019338;28;20542;-59
2023/03/31 02:09:16;;;;;;;1.57;0.97;;;;;9.10;95240.00;;;;5014261;28;20227;-60
2023/03/31 02:11:47;;;;;;;0.70;0.70;;;;;9.10;95237.00;;;;5013759;28;20184;-60
2023/03/31 02:14:20;;;;;;;0.50;0.50;;;;;9.10;95229.00;;;;5018048;28;20201;-61
2023/03/31 02:16:51;;;;;;;0.53;0.53;;;;;9.30;95223.00;;;;5018200;28;20182;-59
2023/03/31 02:19:22;;;;;;;0.73;0.73;;;;;9.30;95223.00;;;;5014368;28;20185;-60
2023/03/31 02:21:50;;;;;;;0.60;0.60;;;;;9.10;95197.00;;;;5014149;28;20583;-60
2023/03/31 02:24:20;;;;;;;1.20;1.10;;;;;9.10;95175.00;;;;5018801;28;20201;-59
2023/03/31 02:26:55;;;;;;;0.60;0.60;;;;;9.20;95145.00;;;;5018055;28;20703;-59
2023/03/31 02:29:22;;;;;;;0.93;0.93;;;;;9.10;95137.00;;;;5019096;28;20189;-60
2023/03/31 02:31:57;;;;;;;1.10;1.10;;;;;9.10;95131.00;;;;5019324;28;20676;-60
2023/03/31 02:34:24;;;;;;;0.70;0.70;;;;;9.10;95128.00;;;;5014373;28;20235;-61
2023/03/31 02:36:52;;;;;;;0.73;0.73;;;;;9.00;95118.00;;;;5013091;28;20224;-60
2023/03/31 02:39:24;;;;;;;0.93;0.93;;;;;8.90;95106.00;;;;5013586;28;20653;-60
2023/03/31 02:41:54;;;;;;;0.70;0.70;;;;;8.80;95101.00;;;;5012194;28;20190;-60
2023/03/31 02:44:22;;;;;;;1.10;1.10;;;;;8.80;95101.00;;;;5016981;28;20189;-60
2023/03/31 02:46:50;;;;;;;0.90;0.90;;;;;8.80;95107.00;;;;5018710;28;20198;-60
2023/03/31 02:49:20;;;;;;;0.63;0.63;;;;;8.70;95100.00;;;;5019142;28;20197;-59
2023/03/31 02:52:08;;;;;;;0.90;0.90;;;;;8.60;95103.00;;;;5017500;28;20204;-59
2023/03/31 02:54:53;;;;;;;1.90;0.87;;;;;8.60;95089.00;;;;5023221;28;20289;-61
2023/03/31 02:57:39;;;;;;;1.53;1.43;;;;;8.50;95089.00;;;;5022137;28;20217;-61
2023/03/31 03:00:14;;;;;;;1.47;1.37;;;;;8.50;95082.00;;;;5017922;28;20181;-60
2023/03/31 03:02:57;;;;;;;0.50;0.50;;;;;8.30;95061.00;;;;5017136;28;20185;-60
2023/03/31 03:05:34;;;;;;;0.60;0.60;;;;;8.30;95059.00;;;;5023011;28;20180;-59
2023/03/31 03:08:15;;;;;;;0.70;0.70;;;;;8.30;95040.00;;;;5023484;28;20256;-60
2023/03/31 03:10:52;;;;;;;1.07;1.07;;;;;8.30;95029.00;;;;5016752;28;20208;-60
2023/03/31 03:13:28;;;;;;;0.70;0.70;;;;;8.30;95021.00;;;;5016592;28;20189;-60
2023/03/31 03:16:01;;;;;;;0.83;0.83;;;;;8.30;95008.00;;;;5023495;28;20196;-59
2023/03/31 03:18:29;;;;;;;3.30;1.53;;;;;8.30;95003.00;;;;5023049;28;20217;-60
2023/03/31 03:20:56;;;;;;;1.17;1.07;;;;;8.30;94989.00;;;;5017196;28;20288;-60
2023/03/31 03:23:23;;;;;;;1.37;1.27;;;;;8.40;95000.00;;;;5016535;28;20530;-60
2023/03/31 03:25:51;;;;;;;0.60;0.60;;;;;8.40;94992.00;;;;5016440;28;20712;-61
2023/03/31 03:28:18;;;;;;;1.63;1.13;;;;;8.30;94984.00;;;;5016654;28;20213;-60
2023/03/31 03:30:47;;;;;;;0.80;0.80;;;;;8.30;94989.00;;;;5021561;28;20252;-59
2023/03/31 03:33:15;;;;;;;0.60;0.60;;;;;8.40;94987.00;;;;5022491;28;20266;-59
2023/03/31 03:35:43;;;;;;;1.30;1.20;;;;;8.30;94987.00;;;;5020619;28;20312;-59
2023/03/31 03:38:10;;;;;;;0.80;0.80;;;;;8.30;94978.00;;;;5020173;28;20620;-59
2023/03/31 03:40:38;;;;;;;0.93;0.93;;;;;8.20;94959.00;;;;5017337;28;20194;-60
2023/03/31 03:43:05;;;;;;;1.00;1.00;;;;;8.20;94945.00;;;;5016960;28;20657;-60
2023/03/31 03:45:33;;;;;;;0.77;0.77;;;;;8.20;94938.00;;;;5018173;28;20256;-61
2023/03/31 03:48:01;;;;;;;1.00;1.00;;;;;8.20;94938.00;;;;5016160;28;20213;-61
2023/03/31 03:50:29;;;;;;;0.57;0.57;;;;;8.10;94924.00;;;;5019358;28;20201;-61
2023/03/31 03:52:57;;;;;;;0.70;0.70;;;;;8.20;94916.00;;;;5022003;28;20197;-58
2023/03/31 03:55:24;;;;;;;1.50;1.50;;;;;8.20;94910.00;;;;5022641;28;20224;-59
2023/03/31 03:57:52;;;;;;;1.00;1.00;;;;;8.20;94910.00;;;;5022292;28;20222;-61
2023/03/31 04:00:20;;;;;;;0.80;0.80;;;;;8.30;94893.00;;;;5019639;28;20216;-61
2023/03/31 04:02:47;;;;;;;1.27;1.27;;;;;8.30;94886.00;;;;5016031;28;20566;-60
2023/03/31 04:05:16;;;;;;;0.93;0.93;;;;;8.50;94893.00;;;;5014945;28;20197;-60
2023/03/31 04:07:43;;;;;;;1.90;1.23;;;;;8.60;94900.00;;;;5015457;28;20221;-60
2023/03/31 04:10:11;;;;;;;0.73;0.73;;;;;8.60;94913.00;;;;5015579;28;20723;-61
2023/03/31 04:12:38;;;;;;;1.20;1.20;;;;;8.70;94887.00;;;;5015811;28;20551;-60
2023/03/31 04:15:07;;;;;;;1.10;1.10;;;;;8.80;94898.00;;;;5015957;28;20213;-59
2023/03/31 04:17:35;;;;;;;1.13;1.13;;;;;8.70;94895.00;;;;5019298;28;20224;-60
2023/03/31 04:20:06;;;;;;;0.60;0.60;;;;;8.70;94903.00;;;;5021731;28;20190;-60
2023/03/31 04:22:39;;;;;;;0.60;0.60;;;;;8.80;94902.00;;;;5015663;28;20209;-61
2023/03/31 04:25:13;;;;;;;0.80;0.80;;;;;8.80;94905.00;;;;5015376;28;20182;-60
2023/03/31 04:27:45;;;;;;;1.90;1.80;;;;;8.80;94909.00;;;;5020845;28;20223;-60
2023/03/31 04:30:21;;;;;;;0.90;0.90;;;;;8.70;94904.00;;;;5019981;28;20216;-60
2023/03/31 04:32:50;;;;;;;0.70;0.70;;;;;8.70;94905.00;;;;5020805;28;20186;-60
2023/03/31 04:35:19;;;;;;;3.20;1.57;;;;;8.80;94903.00;;;;5021269;28;20300;-59
2023/03/31 04:37:48;;;;;;;0.90;0.90;;;;;8.70;94887.00;;;;5020543;28;20213;-60
2023/03/31 04:40:16;;;;;;;0.70;0.70;;;;;8.90;94890.00;;;;5020839;28;20201;-60
2023/03/31 04:42:44;;;;;;;0.60;0.60;;;;;8.90;94890.00;;;;5015710;28;20555;-60
2023/03/31 04:45:14;;;;;;;0.70;0.70;;;;;8.90;94883.00;;;;5015186;28;20193;-61
2023/03/31 04:47:42;;;;;;;0.83;0.83;;;;;8.80;94881.00;;;;5014838;28;20232;-61
2023/03/31 04:50:10;;;;;;;1.03;1.03;;;;;8.80;94864.00;;;;5015103;28;20200;-61
2023/03/31 04:52:38;;;;;;;1.03;1.03;;;;;8.70;94857.00;;;;5018795;28;20190;-61
2023/03/31 04:55:08;;;;;;;0.70;0.70;;;;;8.70;94864.00;;;;5019543;28;20688;-60
2023/03/31 04:57:37;;;;;;;0.70;0.70;;;;;8.80;94866.00;;;;5017005;28;20336;-61
2023/03/31 05:00:06;;;;;;;0.93;0.93;;;;;8.70;94859.00;;;;5014809;28;20205;-60
2023/03/31 05:02:34;;;;;;;0.93;0.93;;;;;8.80;94880.00;;;;5017862;28;20197;-61
2023/03/31 05:05:02;;;;;;;1.97;1.87;;;;;8.60;94896.00;;;;5018252;28;20213;-62
2023/03/31 05:07:30;;;;;;;0.80;0.80;;;;;8.40;94912.00;;;;5014655;28;20227;-60
2023/03/31 05:09:58;;;;;;;0.70;0.70;;;;;8.30;94897.00;;;;5073110;22;20706;-60
2023/03/31 05:12:26;;;;;;;0.97;0.97;;;;;8.30;94889.00;;;;5072823;28;20654;-60
2023/03/31 05:14:54;;;;;;;1.10;1.10;;;;;8.30;94881.00;;;;5074064;28;20215;-60
2023/03/31 05:17:21;;;;;;;1.17;1.17;;;;;8.30;94879.00;;;;5072573;28;20659;-60
2023/03/31 05:19:49;;;;;;;1.27;1.07;;;;;8.10;94869.00;;;;5074024;28;20215;-60
2023/03/31 05:22:19;;;;;;;1.57;1.47;;;;;8.10;94873.00;;;;5073891;28;20194;-60
2023/03/31 05:24:46;;;;;;;1.80;1.70;;;;;8.10;94862.00;;;;5074239;28;20191;-60
2023/03/31 05:27:15;;;;;;;0.80;0.80;;;;;8.10;94868.00;;;;5073797;28;20198;-60
2023/03/31 05:29:44;;;;;;;1.37;1.33;;;;;8.10;94865.00;;;;5073766;28;20234;-60
2023/03/31 05:32:11;;;;;;;0.97;0.97;;;;;8.20;94858.00;;;;5074079;28;20199;-60
2023/03/31 05:34:39;;;;;;;1.43;1.33;;;;;8.20;94851.00;;;;5074128;28;20215;-60
2023/03/31 05:37:06;;;;;;;0.70;0.70;;;;;8.30;94838.00;;;;5073629;28;20203;-60
2023/03/31 05:39:34;;;;;;;1.37;1.27;;;;;8.40;94834.00;;;;5073517;28;20215;-60
2023/03/31 05:42:01;;;;;;;0.80;0.80;;;;;8.30;94822.00;;;;5073791;28;20191;-60
2023/03/31 05:44:29;;;;;;;0.70;0.70;;;;;8.50;94822.00;;;;5073522;28;20233;-60
2023/03/31 05:46:58;;;;;;;0.70;0.70;;;;;8.50;94829.00;;;;5073501;28;20201;-59
2023/03/31 05:49:25;;;;;;;1.77;1.67;;;;;8.60;94819.00;;;;5073285;28;20212;-60
2023/03/31 05:51:53;;;;;;;0.80;0.80;;;;;8.70;94813.00;;;;5073409;28;20603;-60
2023/03/31 05:54:21;;;;;;;0.70;0.70;;;;;8.60;94801.00;;;;5073268;28;20191;-60
2023/03/31 05:56:49;;;;;;;1.87;1.10;;;;;8.60;94803.00;;;;5073628;28;20202;-60
2023/03/31 05:59:16;;;;;;;0.73;0.73;;;;;8.50;94785.00;;;;5073201;28;20654;-60
2023/03/31 06:01:44;;;;;;;0.80;0.80;;;;;8.40;94765.00;;;;5073391;28;20598;-60
2023/03/31 06:04:12;;;;;;;0.97;0.97;;;;;8.30;94764.00;;;;5073415;28;20187;-60
2023/03/31 06:06:41;;;;;;;1.47;1.40;;;;;8.40;94746.00;;;;5072023;28;20199;-60
2023/03/31 06:09:10;;;;;;;0.60;0.60;;;;;8.50;94750.00;;;;5073012;28;20223;-60
2023/03/31 06:11:38;;;;;;;0.97;0.97;;;;;8.60;94748.00;;;;5073169;28;20195;-59
2023/03/31 06:14:06;;;;;;;0.90;0.90;;;;;8.60;94746.00;;;;5072131;28;20708;-59
2023/03/31 06:16:33;;;;;;;0.70;0.70;;;;;8.80;94745.00;;;;5073110;28;20215;-60
2023/03/31 06:19:01;;;;;;;0.80;0.80;;;;;8.80;94747.00;;;;5073072;28;20214;-60
2023/03/31 06:21:30;;;;;;;0.77;0.77;;;;;8.80;94755.00;;;;5071807;28;20564;-60
2023/03/31 06:23:59;;;;;;;1.03;1.03;;;;;8.70;94773.00;;;;5073264;28;20196;-59
2023/03/31 06:26:27;;;;;;;0.90;0.90;;;;;8.70;94766.00;;;;5073172;28;20192;-60
2023/03/31 06:28:54;;;;;;;0.90;0.90;;;;;8.80;94760.00;;;;5072617;28;20234;-60
2023/03/31 06:31:24;;;;;;;5.57;1.47;;;;;8.70;94765.00;;;;5071801;28;20242;-60
2023/03/31 06:33:52;;;;;;;0.60;0.60;;;;;8.70;94756.00;;;;5073244;28;20339;-60
2023/03/31 06:36:21;;;;;;;0.60;0.60;;;;;8.50;94763.00;;;;5073160;28;20215;-60
2023/03/31 06:38:50;;;;;;;1.00;1.00;;;;;8.60;94767.00;;;;5072746;28;20272;-60
2023/03/31 06:41:21;;;;;;;0.80;0.80;;;;;8.50;94783.00;;;;5072948;28;20192;-60
2023/03/31 06:43:49;;;;;;;0.70;0.70;;;;;8.50;94821.00;;;;5072950;28;20175;-59
2023/03/31 06:46:16;;;;;;;0.60;0.60;;;;;8.50;94838.00;;;;5073044;28;20213;-59
2023/03/31 06:48:43;;;;;;;0.67;0.67;;;;;8.20;94844.00;;;;5073114;28;20195;-59
2023/03/31 06:51:12;;;;;;;3.83;1.63;;;;;8.20;94864.00;;;;5073693;28;20188;-60
2023/03/31 06:53:40;;;;;;;1.37;1.30;;;;;8.00;94848.00;;;;5073095;28;20191;-59
2023/03/31 06:56:09;;;;;;;0.90;0.90;;;;;8.30;94826.00;;;;5072942;28;20601;-60
2023/03/31 06:58:36;;;;;;;0.83;0.83;;;;;8.20;94844.00;;;;5073530;28;20300;-60
2023/03/31 07:01:04;;;;;;;0.83;0.83;;;;;8.10;94771.00;;;;5072977;28;20198;-60
2023/03/31 07:03:33;;;;;;;0.97;0.97;;;;;8.30;94796.00;;;;5072740;28;20191;-59
2023/03/31 07:06:00;;;;;;;1.27;1.20;;;;;8.60;94789.00;;;;5072692;28;20215;-60
2023/03/31 07:08:28;;;;;;;0.60;0.60;;;;;8.50;94785.00;;;;5072437;28;20672;-59
2023/03/31 07:10:57;;;;;;;0.60;0.60;;;;;8.40;94770.00;;;;5072494;28;20230;-60
2023/03/31 07:13:27;;;;;;;1.17;1.07;;;;;8.50;94772.00;;;;5072632;28;20203;-59
2023/03/31 07:15:55;;;;;;;0.60;0.60;;;;;8.50;94780.00;;;;5072441;28;20686;-58
2023/03/31 07:18:31;;;;;;;0.50;0.50;;;;;8.50;94763.00;;;;5072580;28;20195;-60
2023/03/31 07:20:59;;;;;;;0.70;0.70;;;;;8.60;94757.00;;;;5071497;28;20183;-59
2023/03/31 07:23:26;;;;;;;0.60;0.60;;;;;8.80;94752.00;;;;5072468;28;20242;-59
2023/03/31 07:25:54;;;;;;;19.60;0.90;;;;;8.90;94748.00;;;;5072673;28;20191;-60
2023/03/31 07:28:21;;;;;;;0.77;0.77;;;;;9.00;94735.00;;;;5072798;28;20554;-58
2023/03/31 07:30:50;;;;;;;0.60;0.60;;;;;9.00;94736.00;;;;5072244;28;20207;-59
2023/03/31 07:33:17;;;;;;;0.80;0.80;;;;;8.90;94740.00;;;;5072507;28;20195;-59
2023/03/31 07:35:45;;;;;;;0.60;0.60;;;;;8.80;94749.00;;;;5072408;28;20551;-58
2023/03/31 07:38:13;;;;;;;0.80;0.80;;;;;9.10;94744.00;;;;5072673;28;20621;-58
2023/03/31 07:40:43;;;;;;;1.53;1.43;;;;;9.10;94732.00;;;;5074806;28;20215;-58
2023/03/31 07:43:11;;;;;;;2.60;1.30;;;;;9.20;94723.00;;;;5075919;28;20190;-58
2023/03/31 07:45:39;;;;;;;0.77;0.77;;;;;9.20;94730.00;;;;5076310;28;20190;-58
2023/03/31 07:48:08;;;;;;;0.60;0.60;;;;;9.40;94712.00;;;;5075814;28;20206;-59
2023/03/31 07:50:36;;;;;;;0.50;0.50;;;;;9.60;94726.00;;;;5075913;28;20569;-59
2023/03/31 07:53:05;;;;;;;0.80;0.80;;;;;9.50;94734.00;;;;5075681;28;20198;-58
2023/03/31 07:55:33;;;;;;;3.63;1.63;;;;;9.70;94713.00;;;;5075552;28;20215;-59
2023/03/31 07:58:00;;;;;;;0.50;0.50;;;;;9.80;94736.00;;;;5076072;28;20188;-59
2023/03/31 08:00:28;;;;;;;0.73;0.73;;;;;9.80;94728.00;;;;5075498;28;20589;-59
2023/03/31 08:02:55;;;;;;;1.83;0.73;;;;;10.00;94727.00;;;;5075578;28;20203;-61
2023/03/31 08:05:24;;;;;;;0.70;0.70;;;;;10.00;94734.00;;;;5074218;28;20667;-59
2023/03/31 08:07:52;;;;;;;0.63;0.63;;;;;10.20;94733.00;;;;5075434;28;20191;-59
2023/03/31 08:10:22;;;;;;;0.70;0.70;;;;;10.40;94735.00;;;;5075346;28;20223;-58
2023/03/31 08:12:50;;;;;;;0.80;0.80;;;;;10.60;94734.00;;;;5075580;28;20184;-58
2023/03/31 08:15:18;;;;;;;0.50;0.50;;;;;10.40;94725.00;;;;5075389;28;20679;-58
2023/03/31 08:17:45;;;;;;;0.70;0.70;;;;;10.60;94720.00;;;;5075216;28;20198;-59
2023/03/31 08:20:13;;;;;;;0.63;0.63;;;;;10.90;94720.00;;;;5075182;28;20207;-60
2023/03/31 08:22:42;;;;;;;0.70;0.70;;;;;11.10;94703.00;;;;5075410;28;20575;-60
2023/03/31 08:25:10;;;;;;;0.50;0.50;;;;;10.90;94769.00;;;;5075325;28;20214;-60
2023/03/31 08:27:39;;;;;;;0.90;0.90;;;;;10.90;94723.00;;;;5075008;28;20679;-59
2023/03/31 08:30:09;;;;;;;0.80;0.80;;;;;10.90;94733.00;;;;5075044;28;20211;-60
2023/03/31 08:32:37;;;;;;;0.70;0.70;;;;;11.00;94728.00;;;;5075728;28;20195;-60
2023/03/31 08:35:05;;;;;;;0.83;0.83;;;;;10.90;94757.00;;;;5075068;28;20198;-60
2023/03/31 08:37:32;;;;;;;0.63;0.63;;;;;10.80;94723.00;;;;5074837;28;20191;-60
2023/03/31 08:40:03;;;;;;;0.60;0.60;;;;;11.00;94732.00;;;;5073479;28;20556;-60
2023/03/31 08:42:38;;;;;;;1.83;1.13;;;;;11.00;94747.00;;;;5073498;28;20203;-58
2023/03/31 08:45:11;;;;;;;1.17;1.07;;;;;11.10;94725.00;;;;5073752;28;20183;-59
2023/03/31 08:47:40;;;;;;;0.80;0.80;;;;;11.40;94732.00;;;;5074938;28;20532;-60
2023/03/31 08:50:12;;;;;;;0.60;0.60;;;;;11.70;94746.00;;;;5074127;28;20253;-59
2023/03/31 08:52:44;;;;;;;0.90;0.90;;;;;11.80;94722.00;;;;5074776;28;20234;-60
2023/03/31 08:55:20;;;;;;;0.67;0.67;;;;;11.30;94765.00;;;;5073250;28;20569;-59
2023/03/31 08:57:55;;;;;;;0.90;0.90;;;;;11.40;94718.00;;;;5074754;28;20183;-60
2023/03/31 09:00:23;;;;;;;0.50;0.50;;;;;11.50;94743.00;;;;5074595;28;20218;-59
2023/03/31 09:02:59;;;;;;;0.80;0.80;;;;;11.70;94725.00;;;;5074334;28;20226;-59
2023/03/31 09:05:47;;;;;;;0.50;0.50;;;;;11.60;94729.00;;;;5074317;28;20185;-59
2023/03/31 09:08:33;;;;;;;1.03;1.03;;;;;11.30;94751.00;;;;5074494;28;20176;-58
2023/03/31 09:11:11;;;;;;;0.50;0.50;;;;;11.10;94760.00;;;;5074302;28;20192;-58
2023/03/31 09:14:09;;;;;;;0.87;0.87;;;;;11.00;94748.00;;;;5074429;28;20218;-59
2023/03/31 09:16:42;;;;;;;0.60;0.60;;;;;11.30;94708.00;;;;5074252;28;20219;-60
2023/03/31 09:19:18;;;;;;;1.27;1.17;;;;;11.30;94722.00;;;;5074371;28;20223;-58
2023/03/31 09:21:49;;;;;;;1.47;1.40;;;;;11.20;94713.00;;;;5074613;28;20190;-59
2023/03/31 09:24:20;;;;;;;0.50;0.50;;;;;11.00;94723.00;;;;5073897;28;20549;-59
2023/03/31 09:26:52;;;;;;;1.00;1.00;;;;;11.00;94723.00;;;;5074499;28;20627;-59
2023/03/31 09:29:28;;;;;;;5.93;1.73;;;;;11.40;94726.00;;;;5073973;28;20219;-59
2023/03/31 09:32:00;;;;;;;1.27;1.17;;;;;11.70;94709.00;;;;5074196;28;20184;-59
2023/03/31 09:34:32;;;;;;;0.90;0.90;;;;;11.40;94683.00;;;;5073785;28;20183;-59
2023/03/31 09:37:00;;;;;;;0.80;0.80;;;;;11.80;94676.00;;;;5073834;28;20203;-59
2023/03/31 09:39:27;;;;;;;7.03;2.33;;;;;11.90;94665.00;;;;5073509;28;20220;-59
2023/03/31 09:41:56;;;;;;;2.73;1.10;;;;;12.20;94667.00;;;;5073613;28;20195;-59
2023/03/31 09:44:27;;;;;;;1.27;1.27;;;;;12.10;94665.00;;;;5072327;28;20643;-59
2023/03/31 09:46:55;;;;;;;0.60;0.60;;;;;12.00;94680.00;;;;5073824;28;20187;-58
2023/03/31 09:49:27;;;;;;;0.83;0.83;;;;;12.20;94644.00;;;;5073438;28;20211;-59
2023/03/31 09:52:03;;;;;;;0.97;0.90;;;;;12.30;94632.00;;;;5072787;28;20654;-59
2023/03/31 09:54:37;;;;;;;1.23;1.17;;;;;12.10;94659.00;;;;5073745;28;20619;-58
2023/03/31 09:57:14;;;;;;;0.50;0.50;;;;;12.20;94626.00;;;;5073936;28;20655;-60
2023/03/31 09:59:42;;;;;;;0.80;0.80;;;;;12.20;94630.00;;;;5073515;28;20545;-60
2023/03/31 10:02:33;;;;;;;0.63;0.63;;;;;12.20;94630.00;;;;5072555;28;20219;-58
2023/03/31 10:05:03;;;;;;;0.60;0.60;;;;;12.20;94606.00;;;;5073556;28;20270;-59
2023/03/31 10:07:31;;;;;;;0.70;0.70;;;;;12.10;94612.00;;;;5073362;28;20222;-58
2023/03/31 10:09:58;;;;;;;0.57;0.57;;;;;12.30;94592.00;;;;5072527;28;20325;-59
2023/03/31 10:12:29;;;;;;;3.80;1.23;;;;;12.60;94615.00;;;;5073248;28;20198;-58
2023/03/31 10:15:18;;;;;;;0.77;0.77;;;;;12.60;94639.00;;;;5073191;28;20188;-58
2023/03/31 10:17:47;;;;;;;0.50;0.50;;;;;12.70;94626.00;;;;5073145;28;20199;-58
2023/03/31 10:20:31;;;;;;;0.67;0.67;;;;;12.10;94604.00;;;;5073090;28;20305;-58
2023/03/31 10:23:04;;;;;;;0.63;0.63;;;;;12.20;94601.00;;;;5073243;28;20175;-59
2023/03/31 10:25:34;;;;;;;0.80;0.80;;;;;12.30;94602.00;;;;5073093;28;20205;-62
2023/03/31 10:28:04;;;;;;;1.20;1.20;;;;;12.70;94597.00;;;;5073187;28;20187;-60
2023/03/31 10:30:36;;;;;;;0.93;0.80;;;;;12.60;94615.00;;;;5072965;28;20208;-59
2023/03/31 10:33:11;;;;;;;1.17;1.17;;;;;13.00;94586.00;;;;5073140;28;20184;-59
2023/03/31 10:35:39;;;;;;;0.60;0.60;;;;;12.70;94572.00;;;;5073558;28;20171;-58
2023/03/31 10:38:11;;;;;;;1.70;0.80;;;;;12.80;94597.00;;;;5073193;28;20582;-57
2023/03/31 10:40:41;;;;;;;0.50;0.50;;;;;12.70;94577.00;;;;5072917;28;20610;-58
2023/03/31 10:43:17;;;;;;;0.60;0.60;;;;;12.80;94615.00;;;;5073172;28;20274;-59
2023/03/31 10:45:49;;;;;;;1.60;1.47;;;;;12.80;94594.00;;;;5073340;28;20183;-59
2023/03/31 10:48:24;;;;;;;0.70;0.70;;;;;12.50;94644.00;;;;5073286;28;20183;-58
2023/03/31 10:50:51;;;;;;;8.93;1.07;;;;;12.00;94693.00;;;;5072674;28;20211;-60
2023/03/31 10:53:19;;;;;;;0.60;0.60;;;;;11.80;94598.00;;;;5073092;28;20592;-58
2023/03/31 10:56:09;;;;;;;0.50;0.50;;;;;11.40;94638.00;;;;5072935;28;20575;-60
2023/03/31 10:58:59;;;;;;;0.73;0.73;;;;;11.30;94638.00;;;;5072691;28;20635;-59
2023/03/31 11:01:36;;;;;;;0.60;0.60;;;;;10.90;94721.00;;;;5073005;28;20187;-59
2023/03/31 11:04:28;;;;;;;0.53;0.53;;;;;8.10;94869.00;;;;5071451;28;20253;-57
2023/03/31 11:07:02;;;;;;;0.67;0.67;;;;;7.00;94810.00;;;;5072853;28;20179;-57
2023/03/31 11:09:42;;;;;;;0.60;0.60;;;;;7.00;94798.00;;;;5092893;22;20238;-58
2023/03/31 11:12:19;;;;;;;1.17;1.17;;;;;7.10;94829.00;;;;5052948;28;20188;-59
2023/03/31 11:15:03;;;;;;;0.60;0.60;;;;;7.20;94915.00;;;;5055278;28;20194;-58
2023/03/31 11:17:46;;;;;;;0.60;0.60;;;;;7.20;94752.00;;;;5057378;28;20228;-57
2023/03/31 11:20:19;;;;;;;0.60;0.60;;;;;7.10;94758.00;;;;5057608;28;20215;-60
2023/03/31 11:22:56;;;;;;;0.83;0.83;;;;;7.10;94790.00;;;;5059328;28;20204;-60
2023/03/31 11:25:31;;;;;;;0.83;0.83;;;;;7.10;94738.00;;;;5058983;28;20180;-60
2023/03/31 11:28:43;;;;;;;0.70;0.70;;;;;7.10;94748.00;;;;5056584;28;20545;-59
2023/03/31 11:31:26;;;;;;;0.60;0.60;;;;;7.10;94727.00;;;;4995125;28;20225;-58
2023/03/31 11:34:06;;;;;;;1.10;1.10;;;;;7.30;94723.00;;;;5050200;28;20239;-60
2023/03/31 11:36:48;;;;;;;0.70;0.70;;;;;7.40;94706.00;;;;5057690;28;20757;-60
2023/03/31 11:39:33;;;;;;;0.60;0.60;;;;;7.90;94680.00;;;;5056141;28;20291;-61
2023/03/31 11:42:03;;;;;;;0.70;0.70;;;;;8.40;94671.00;;;;5057521;28;20184;-61
2023/03/31 11:44:39;;;;;;;0.70;0.70;;;;;8.60;94665.00;;;;5060805;28;20184;-60
2023/03/31 11:47:13;;;;;;;0.70;0.70;;;;;9.00;94651.00;;;;5060822;28;20276;-60
2023/03/31 11:49:44;;;;;;;0.77;0.77;;;;;9.30;94628.00;;;;5060546;28;20216;-60
2023/03/31 11:52:17;;;;;;;0.90;0.90;;;;;9.30;94665.00;;;;5058506;28;20183;-61
2023/03/31 11:54:54;;;;;;;0.70;0.70;;;;;9.30;94645.00;;;;5055822;28;20234;-60
2023/03/31 11:57:28;;;;;;;1.00;1.00;;;;;9.00;94631.00;;;;5056377;28;20220;-60
2023/03/31 11:59:58;;;;;;;0.60;0.60;;;;;9.50;94631.00;;;;5060548;28;20208;-61
2023/03/31 12:02:38;;;;;;;0.57;0.57;;;;;9.40;94614.00;;;;5060433;28;20184;-61
2023/03/31 12:05:09;;;;;;;0.50;0.50;;;;;9.20;94615.00;;;;5061121;28;20188;-62
2023/03/31 12:07:45;;;;;;;0.50;0.50;;;;;10.00;94599.00;;;;5060602;28;20203;-61
2023/03/31 12:10:19;;;;;;;0.60;0.60;;;;;9.90;94589.00;;;;5061510;28;20235;-61
2023/03/31 12:12:51;;;;;;;0.50;0.50;;;;;9.80;94609.00;;;;5058580;28;20184;-61
2023/03/31 12:15:23;;;;;;;0.60;0.60;;;;;10.30;94595.00;;;;5055357;28;20169;-62
2023/03/31 12:17:59;;;;;;;0.63;0.63;;;;;10.40;94572.00;;;;5057527;28;20203;-59
2023/03/31 12:20:33;;;;;;;0.60;0.60;;;;;10.30;94620.00;;;;5058888;28;20725;-60
2023/03/31 12:23:04;;;;;;;0.53;0.53;;;;;10.60;94552.00;;;;5058121;28;20246;-61
2023/03/31 12:25:44;;;;;;;0.80;0.80;;;;;10.50;94564.00;;;;5054427;28;20180;-62
2023/03/31 12:28:12;;;;;;;0.50;0.50;;;;;10.30;94585.00;;;;5058060;28;20180;-59
2023/03/31 12:30:43;;;;;;;9.53;1.03;;;;;10.10;94551.00;;;;5060144;28;20215;-62
2023/03/31 12:33:20;;;;;;;0.50;0.50;;;;;10.50;94542.00;;;;5061922;28;20224;-60
2023/03/31 12:36:02;;;;;;;0.60;0.60;;;;;10.60;94534.00;;;;5060807;28;20639;-60
2023/03/31 12:38:44;;;;;;;0.60;0.60;;;;;11.20;94516.00;;;;5058025;28;20234;-62
2023/03/31 12:41:17;;;;;;;0.70;0.70;;;;;11.50;94526.00;;;;5055159;28;20302;-61
2023/03/31 12:44:00;;;;;;;0.60;0.60;;;;;11.30;94515.00;;;;5058749;28;20188;-62
2023/03/31 12:47:02;;;;;;;0.63;0.63;;;;;11.50;94555.00;;;;5061601;28;20177;-61